Main page
METAR-TAF:

METAR-TAF

Airports :

Altenburg, Germany

Leipzig–Altenburg Airport

latitude: 50-58N, longitude: 012-30E, elevation: 195 m

Current weather observation

The report was made 21 hours and 41 minutes ago, at 16:50 UTC
Wind 9 kt from the East/Northeast, varying between North/Northeast and East
Temperature 25°C
Pressure 1020 hPa
Visibility 10 km or more
no clouds below 1500 m and no cumulonimbus

METAR: EDAC 271650Z 06009KT 030V090 CAVOK 25/// Q1020

Time: 16:31 (14:31 UTC)

Forecast

The report was made 21 hours and 31 minutes ago, at 17:00 UTC
Forecast valid from 27 at 18 UTC to 28 at 03 UTC
Wind 6 kt from the East
Visibility 10 km or more
no clouds below 1500 m and no cumulonimbus
Becoming
from 27 at 18 UTC to 27 at 20 UTC
Wind 4 kt from the South/Southeast

TAF: EDAC 271700Z 2718/2803 08006KT CAVOK BECMG 2718/2720 15004KT

Weather observations and forecasts of more than 4000 airports (METAR and TAF reports).

The available stations are represented by yellow and red dots on the map.

Hover mouse over dot to see the name of the station.

Then click to see weather observations and forecasts.

To change the map : click on the green buttons with a black cross to zoom in, on the green button with a dash to zoom out, or on the green arrows for adjacent maps.


METAR-TAF: